Weather History for Clinton, IA

Change the Weather History Date:

Saturday, November 24, 2012

  Actual Average Record
Temperature  
Mean Temperature 22 °F -  
Max Temperature 32 °F 43 °F 62 °F (1966)
Min Temperature 12 °F 25 °F -4 °F (1950)
Degree Days  
Heating Degree Days 43    
Moisture  
Dew Point 15 °F    
Average Humidity 70    
Maximum Humidity 86    
Minimum Humidity 55    
Precipitation  
Precipitation 0.00 in - - ()
Sea Level Pressure  
Sea Level Pressure 30.18 in    
Wind  
Wind Speed 8 mph (WSW)    
Max Wind Speed 15 mph    
Max Gust Speed -    
Visibility 10 miles    
Events      
Averages and records for this station are not official NWS values.
T = Trace of Precipitation, MM = Missing Value Source: NWS Daily Summary

Daily Weather History Graph

Daily Weather History Graph

Search for Another Location

Airport:

Trip Planner

Search our weather history database for the weather conditions in past years. The results will help you decide how hot, cold, wet, or windy it might be!

Date:

Astronomy

Nov. 24, 2012 Rise Set
Actual Time 7:02 AM CST 4:33 PM CST
Civil Twilight 6:31 AM CST 5:04 PM CST
Nautical Twilight 5:57 AM CST 5:38 PM CST
Astronomical Twilight 5:23 AM CST 6:12 PM CST
Moon 2:21 PM CST (11/24) 3:16 AM CST (11/24)
Length of Visible Light 10h 33m
Length of Day
9h 31m
Waxing Gibbous, 87% of the Moon is Illuminated
Nov 24
Waxing Gibbous
Nov 28
Full
Dec 6
Last Quarter
Dec 13
New
Dec 19
First Quarter

Hourly Weather History & Observations

Time (CST) Temp. Windchill Dew Point Humidity Pressure Visibility Wind Dir Wind Speed Gust Speed Precip Events Conditions
12:15 AM 15.8 °F 5.1 °F 10.4 °F 79% 30.29 in 10.0 mi West 8.1 mph - N/A   Clear
12:35 AM 15.8 °F 5.1 °F 10.4 °F 79% 30.29 in 10.0 mi West 8.1 mph - N/A   Clear
12:55 AM 15.8 °F 4.2 °F 12.2 °F 86% 30.29 in 10.0 mi West 9.2 mph - N/A   Clear
1:15 AM 17.6 °F 6.4 °F 12.2 °F 79% 30.29 in 10.0 mi West 9.2 mph - N/A   Clear
1:35 AM 17.6 °F 7.3 °F 12.2 °F 79% 30.29 in 10.0 mi West 8.1 mph - N/A   Clear
1:55 AM 17.6 °F 9.3 °F 12.2 °F 79% 30.29 in 10.0 mi West 5.8 mph - N/A   Clear
2:15 AM 15.8 °F 7.2 °F 10.4 °F 79% 30.30 in 10.0 mi WNW 5.8 mph - N/A   Clear
2:35 AM 15.8 °F 5.1 °F 10.4 °F 79% 30.30 in 10.0 mi West 8.1 mph - N/A   Clear
2:55 AM 15.8 °F 7.2 °F 10.4 °F 79% 30.30 in 10.0 mi WNW 5.8 mph - N/A   Clear
3:15 AM 15.8 °F 7.2 °F 10.4 °F 79% 30.30 in 10.0 mi West 5.8 mph - N/A   Clear
3:35 AM 15.8 °F 6.1 °F 10.4 °F 79% 30.29 in 10.0 mi WNW 6.9 mph - N/A   Clear
3:55 AM 14.0 °F 5.1 °F 10.4 °F 86% 30.29 in 10.0 mi WNW 5.8 mph - N/A   Clear
4:15 AM 12.2 °F 1.7 °F 8.6 °F 85% 30.29 in 10.0 mi WNW 6.9 mph - N/A   Clear
4:35 AM 12.2 °F 4.3 °F 8.6 °F 85% 30.29 in 10.0 mi WNW 4.6 mph - N/A   Clear
4:55 AM 12.2 °F 1.7 °F 8.6 °F 85% 30.29 in 10.0 mi WNW 6.9 mph - N/A   Clear
5:15 AM 12.2 °F 1.7 °F 8.6 °F 85% 30.28 in 10.0 mi WNW 6.9 mph - N/A   Clear
5:35 AM 12.2 °F 1.7 °F 8.6 °F 85% 30.28 in 10.0 mi West 6.9 mph - N/A   Clear
6:15 AM 12.2 °F 0.7 °F 6.8 °F 79% 30.29 in 10.0 mi West 8.1 mph - N/A   Clear
6:35 AM 14.0 °F 3.9 °F 8.6 °F 79% 30.29 in 10.0 mi WNW 6.9 mph - N/A   Clear
6:55 AM 14.0 °F 2.9 °F 10.4 °F 86% 30.30 in 10.0 mi WNW 8.1 mph - N/A   Clear
7:15 AM 14.0 °F 3.9 °F 10.4 °F 86% 30.30 in 10.0 mi WNW 6.9 mph - N/A   Clear
7:35 AM 15.8 °F 6.1 °F 10.4 °F 79% 30.30 in 10.0 mi WNW 6.9 mph - N/A   Clear
7:55 AM 15.8 °F 5.1 °F 12.2 °F 86% 30.30 in 10.0 mi WNW 8.1 mph - N/A   Clear
8:15 AM 17.6 °F 5.7 °F 12.2 °F 79% 30.31 in 10.0 mi WNW 10.4 mph - N/A   Clear
8:35 AM 19.4 °F 9.5 °F 15.8 °F 86% 30.30 in 10.0 mi WNW 8.1 mph - N/A   Clear
8:55 AM 21.2 °F 13.6 °F 15.8 °F 80% 30.30 in 10.0 mi NW 5.8 mph - N/A   Clear
9:15 AM 23.0 °F 17.0 °F 17.6 °F 80% 30.30 in 10.0 mi NNW 4.6 mph - N/A   Clear
9:35 AM 24.8 °F 17.9 °F 17.6 °F 74% 30.30 in 10.0 mi NNW 5.8 mph - N/A   Clear
9:55 AM 24.8 °F 19.1 °F 17.6 °F 74% 30.30 in 10.0 mi NNW 4.6 mph - N/A   Clear
10:15 AM 26.6 °F - 17.6 °F 69% 30.30 in 10.0 mi Calm Calm - N/A   Clear
10:35 AM 24.8 °F - 15.8 °F 69% 30.30 in 10.0 mi Calm Calm - N/A   Clear
10:55 AM 26.6 °F 20.0 °F 15.8 °F 64% 30.29 in 10.0 mi West 5.8 mph - N/A   Partly Cloudy
11:15 AM 28.4 °F 24.6 °F 17.6 °F 64% 30.27 in 10.0 mi SW 3.5 mph - N/A   Clear
11:35 AM 28.4 °F - 17.6 °F 64% 30.26 in 10.0 mi Calm Calm - N/A   Clear
11:55 AM 30.2 °F 24.3 °F 17.6 °F 60% 30.24 in 10.0 mi WSW 5.8 mph - N/A   Clear
12:15 PM 30.2 °F - 15.8 °F 55% 30.22 in 10.0 mi Calm Calm - N/A   Clear
12:35 PM 30.2 °F 22.6 °F 15.8 °F 55% 30.23 in 10.0 mi WSW 8.1 mph - N/A   Clear
12:55 PM 30.2 °F 23.4 °F 17.6 °F 60% 30.21 in 10.0 mi WSW 6.9 mph - N/A   Clear
1:15 PM 32.0 °F 25.6 °F 17.6 °F 55% 30.20 in 10.0 mi WSW 6.9 mph - N/A   Clear
1:35 PM 30.2 °F 21.9 °F 15.8 °F 55% 30.19 in 10.0 mi WSW 9.2 mph - N/A   Clear
1:55 PM 30.2 °F 23.4 °F 17.6 °F 60% 30.17 in 10.0 mi SSW 6.9 mph - N/A   Scattered Clouds
2:15 PM 32.0 °F 23.6 °F 17.6 °F 55% 30.16 in 10.0 mi SW 10.4 mph - N/A   Mostly Cloudy
2:35 PM 30.2 °F 21.3 °F 17.6 °F 60% 30.16 in 10.0 mi WSW 10.4 mph - N/A   Mostly Cloudy
2:55 PM 30.2 °F 21.3 °F 17.6 °F 60% 30.15 in 10.0 mi SSW 10.4 mph - N/A   Overcast
3:15 PM 30.2 °F 21.9 °F 15.8 °F 55% 30.16 in 10.0 mi SW 9.2 mph - N/A   Overcast
3:35 PM 30.2 °F 21.9 °F 17.6 °F 60% 30.14 in 10.0 mi SW 9.2 mph - N/A   Overcast
3:55 PM 30.2 °F 23.4 °F 17.6 °F 60% 30.14 in 10.0 mi SSW 6.9 mph - N/A   Overcast
4:15 PM 28.4 °F 20.4 °F 17.6 °F 64% 30.13 in 10.0 mi SSW 8.1 mph - N/A   Mostly Cloudy
4:35 PM 28.4 °F 19.7 °F 17.6 °F 64% 30.12 in 10.0 mi SSW 9.2 mph - N/A   Clear
4:55 PM 28.4 °F 20.4 °F 17.6 °F 64% 30.10 in 10.0 mi South 8.1 mph - N/A   Clear
5:15 PM 28.4 °F 21.2 °F 17.6 °F 64% 30.09 in 10.0 mi SSW 6.9 mph - N/A   Scattered Clouds
5:35 PM 28.4 °F 20.4 °F 17.6 °F 64% 30.08 in 10.0 mi South 8.1 mph - N/A   Overcast
5:55 PM 28.4 °F 19.7 °F 17.6 °F 64% 30.08 in 10.0 mi South 9.2 mph - N/A   Overcast
6:15 PM 28.4 °F 19.7 °F 17.6 °F 64% 30.06 in 10.0 mi South 9.2 mph - N/A   Overcast
6:35 PM 28.4 °F 21.2 °F 17.6 °F 64% 30.06 in 10.0 mi South 6.9 mph - N/A   Overcast
6:55 PM 28.4 °F 19.7 °F 17.6 °F 64% 30.04 in 10.0 mi South 9.2 mph - N/A   Overcast
7:15 PM 28.4 °F 18.5 °F 17.6 °F 64% 30.03 in 10.0 mi South 11.5 mph - N/A   Overcast
7:35 PM 28.4 °F 19.7 °F 17.6 °F 64% 30.03 in 10.0 mi South 9.2 mph - N/A   Overcast
7:55 PM 28.4 °F 17.5 °F 17.6 °F 64% 30.03 in 10.0 mi South 13.8 mph - N/A   Overcast
8:15 PM 28.4 °F 17.0 °F 17.6 °F 64% 30.02 in 10.0 mi SSW 15.0 mph - N/A   Mostly Cloudy
8:35 PM 28.4 °F 18.5 °F 17.6 °F 64% 30.02 in 10.0 mi South 11.5 mph - N/A   Mostly Cloudy
8:55 PM 28.4 °F 19.7 °F 17.6 °F 64% 30.01 in 10.0 mi South 9.2 mph - N/A   Mostly Cloudy
9:15 PM 28.4 °F 18.5 °F 19.4 °F 69% 30.01 in 10.0 mi SSW 11.5 mph - N/A   Mostly Cloudy
9:35 PM 30.2 °F 21.3 °F 17.6 °F 60% 30.01 in 10.0 mi SSW 10.4 mph - N/A   Overcast
9:55 PM 28.4 °F 19.1 °F 19.4 °F 69% 30.00 in 10.0 mi South 10.4 mph - N/A   Overcast
10:15 PM 30.2 °F 21.9 °F 17.6 °F 60% 29.99 in 10.0 mi South 9.2 mph - N/A   Overcast
10:35 PM 30.2 °F 22.6 °F 19.4 °F 64% 29.99 in 10.0 mi South 8.1 mph - N/A   Overcast
10:55 PM 30.2 °F 22.6 °F 19.4 °F 64% 29.98 in 10.0 mi South 8.1 mph - N/A   Overcast
11:15 PM 30.2 °F 22.6 °F 19.4 °F 64% 29.96 in 10.0 mi South 8.1 mph - N/A   Mostly Cloudy
11:35 PM 30.2 °F 21.9 °F 19.4 °F 64% 29.95 in 10.0 mi South 9.2 mph - N/A   Mostly Cloudy
11:55 PM 30.2 °F 21.9 °F 19.4 °F 64% 29.93 in 10.0 mi South 9.2 mph - N/A   Mostly Cloudy